createdAt,value
2023-12-31T00:01:37.057Z,7.63
2023-12-31T00:04:04.246Z,7.45
2023-12-31T00:06:30.755Z,7.25
2023-12-31T00:08:57.230Z,7.13
2023-12-31T00:11:23.640Z,7.85
2023-12-31T00:13:50.180Z,7.60
2023-12-31T00:16:16.932Z,8.05
2023-12-31T00:18:43.528Z,7.93
2023-12-31T00:21:10.049Z,8.68
2023-12-31T00:23:37.139Z,8.88
2023-12-31T00:26:03.868Z,8.45
2023-12-31T00:28:30.385Z,8.68
2023-12-31T00:30:56.939Z,8.60
2023-12-31T00:33:23.535Z,8.27
2023-12-31T00:35:50.274Z,8.70
2023-12-31T00:38:16.896Z,8.43
2023-12-31T00:40:43.399Z,9.15
2023-12-31T00:43:09.914Z,8.00
2023-12-31T00:45:36.571Z,7.40
2023-12-31T00:48:03.955Z,8.45
2023-12-31T00:50:31.245Z,8.55
2023-12-31T00:52:57.727Z,7.70
2023-12-31T00:55:24.241Z,8.60
2023-12-31T00:57:50.705Z,8.25
2023-12-31T01:00:17.348Z,7.78
2023-12-31T01:02:43.846Z,7.30
2023-12-31T01:05:10.451Z,7.32
2023-12-31T01:07:36.962Z,7.32
2023-12-31T01:10:04.244Z,7.47
2023-12-31T01:12:30.716Z,6.97
2023-12-31T01:14:57.161Z,6.90
2023-12-31T01:17:24.439Z,7.05
2023-12-31T01:19:50.908Z,6.90
2023-12-31T01:22:17.459Z,6.15
2023-12-31T01:24:43.964Z,5.85
2023-12-31T01:27:10.438Z,6.97
2023-12-31T01:29:39.790Z,6.25
2023-12-31T01:32:06.984Z,7.07
2023-12-31T01:34:34.801Z,6.65
2023-12-31T01:37:01.744Z,7.63
2023-12-31T01:39:28.225Z,6.80
2023-12-31T01:41:55.132Z,7.82
2023-12-31T01:44:21.680Z,6.53
2023-12-31T01:46:48.568Z,7.50
2023-12-31T01:49:15.656Z,7.07
2023-12-31T01:51:42.313Z,7.32
2023-12-31T01:54:09.054Z,7.47
2023-12-31T01:56:38.526Z,7.97
2023-12-31T01:59:05.912Z,7.22
2023-12-31T02:01:34.390Z,7.38
2023-12-31T02:04:01.409Z,7.15
2023-12-31T02:06:28.015Z,7.20
2023-12-31T02:08:54.478Z,7.30
2023-12-31T02:11:21.101Z,8.23
2023-12-31T02:13:47.592Z,7.97
2023-12-31T02:16:16.957Z,8.40
2023-12-31T02:18:44.119Z,8.32
2023-12-31T02:21:14.384Z,7.30
2023-12-31T02:23:41.723Z,8.07
2023-12-31T02:26:09.847Z,7.57
2023-12-31T02:28:36.653Z,7.35
2023-12-31T02:31:04.281Z,8.38
2023-12-31T02:33:31.142Z,8.20
2023-12-31T02:35:57.783Z,6.95
2023-12-31T02:38:24.436Z,7.63
2023-12-31T02:40:51.322Z,6.95
2023-12-31T02:43:17.944Z,7.57
2023-12-31T02:45:44.403Z,7.10
2023-12-31T02:48:11.018Z,6.75
2023-12-31T02:50:37.528Z,7.78
2023-12-31T02:53:05.862Z,7.40
2023-12-31T02:55:32.800Z,7.47
2023-12-31T02:57:59.293Z,9.07
2023-12-31T03:00:25.766Z,8.95
2023-12-31T03:02:52.263Z,9.25
2023-12-31T03:05:18.782Z,9.63
2023-12-31T03:07:45.399Z,9.65
2023-12-31T03:10:12.550Z,9.93
2023-12-31T03:12:39.143Z,9.73
2023-12-31T03:15:06.210Z,10.80
2023-12-31T03:17:32.783Z,11.32
2023-12-31T03:19:59.315Z,10.85
2023-12-31T03:22:33.457Z,10.85
2023-12-31T03:25:05.925Z,10.52
2023-12-31T03:27:32.821Z,10.85
2023-12-31T03:29:59.287Z,11.52
2023-12-31T03:32:25.824Z,10.60
2023-12-31T03:34:52.398Z,11.38
2023-12-31T03:37:19.043Z,10.65
2023-12-31T03:39:46.057Z,11.23
2023-12-31T03:42:12.744Z,11.10
2023-12-31T03:44:39.750Z,11.70
2023-12-31T03:47:06.310Z,11.15
2023-12-31T03:49:32.807Z,11.77
2023-12-31T03:51:59.630Z,10.55
2023-12-31T03:54:26.137Z,11.70
2023-12-31T03:56:52.593Z,11.43
2023-12-31T03:59:19.046Z,11.43
2023-12-31T04:01:46.799Z,12.00
2023-12-31T04:04:16.084Z,11.57
2023-12-31T04:06:43.953Z,11.38
2023-12-31T04:09:12.337Z,10.98
2023-12-31T04:11:39.236Z,11.73
2023-12-31T04:14:05.783Z,12.15
2023-12-31T04:16:32.497Z,11.27
2023-12-31T04:18:59.282Z,10.45
2023-12-31T04:21:25.909Z,10.45
2023-12-31T04:23:52.393Z,10.35
2023-12-31T04:26:19.889Z,10.80
2023-12-31T04:28:46.642Z,10.82
2023-12-31T04:31:13.543Z,10.15
2023-12-31T04:33:40.039Z,10.43
2023-12-31T04:36:06.992Z,10.20
2023-12-31T04:38:33.672Z,10.15
2023-12-31T04:41:00.321Z,10.40
2023-12-31T04:43:26.881Z,10.77
2023-12-31T04:45:54.087Z,11.48
2023-12-31T04:48:20.623Z,13.05
2023-12-31T04:50:47.089Z,13.32
2023-12-31T04:53:13.709Z,14.20
2023-12-31T04:55:40.138Z,13.25
2023-12-31T04:58:07.084Z,13.30
2023-12-31T05:00:33.551Z,14.13
2023-12-31T05:03:00.190Z,14.73
2023-12-31T05:05:27.602Z,15.25
2023-12-31T05:07:54.173Z,16.10
2023-12-31T05:10:21.374Z,15.45
2023-12-31T05:12:47.906Z,16.77
2023-12-31T05:15:14.420Z,17.70
2023-12-31T05:17:40.999Z,16.42
2023-12-31T05:20:08.993Z,15.57
2023-12-31T05:22:35.494Z,16.30
2023-12-31T05:25:02.087Z,15.73
2023-12-31T05:27:28.554Z,16.60
2023-12-31T05:29:55.004Z,15.90
2023-12-31T05:32:21.438Z,15.80
2023-12-31T05:34:47.979Z,16.17
2023-12-31T05:37:14.572Z,13.80
2023-12-31T05:39:41.450Z,14.15
2023-12-31T05:42:07.987Z,14.88
2023-12-31T05:44:34.464Z,15.57
2023-12-31T05:47:01.001Z,15.38
2023-12-31T05:49:27.615Z,15.25
2023-12-31T05:51:54.139Z,15.65
2023-12-31T05:54:20.548Z,15.30
2023-12-31T05:56:46.986Z,16.35
2023-12-31T05:59:13.699Z,15.63
2023-12-31T06:01:40.197Z,16.20
2023-12-31T06:04:07.529Z,13.38
2023-12-31T06:06:36.266Z,12.77
2023-12-31T06:09:02.949Z,12.65
2023-12-31T06:11:29.445Z,12.80
2023-12-31T06:13:55.893Z,11.73
2023-12-31T06:16:22.401Z,12.40
2023-12-31T06:18:49.542Z,12.65
2023-12-31T06:21:16.076Z,12.05
2023-12-31T06:23:42.528Z,11.15
2023-12-31T06:26:08.976Z,11.55
2023-12-31T06:28:35.689Z,11.57
2023-12-31T06:31:02.439Z,11.80
2023-12-31T06:33:29.401Z,10.85
2023-12-31T06:35:55.996Z,9.80
2023-12-31T06:38:22.469Z,10.63
2023-12-31T06:40:49.031Z,9.60
2023-12-31T06:43:15.565Z,10.65
2023-12-31T06:45:42.405Z,9.38
2023-12-31T06:48:09.038Z,10.32
2023-12-31T06:50:35.741Z,9.88
2023-12-31T06:53:02.560Z,11.40
2023-12-31T06:55:29.260Z,10.07
2023-12-31T06:57:55.899Z,9.88
2023-12-31T07:00:23.615Z,10.10
2023-12-31T07:02:50.119Z,10.68
2023-12-31T07:05:16.908Z,9.95
2023-12-31T07:07:43.396Z,11.25
2023-12-31T07:10:10.452Z,11.70
2023-12-31T07:12:37.128Z,11.20
2023-12-31T07:15:04.292Z,13.25
2023-12-31T07:17:31.159Z,13.13
2023-12-31T07:19:58.177Z,12.57
2023-12-31T07:22:25.824Z,12.65
2023-12-31T07:24:52.336Z,12.57
2023-12-31T07:27:18.788Z,12.43
2023-12-31T07:29:45.315Z,10.25
2023-12-31T07:32:11.800Z,10.20
2023-12-31T07:34:38.342Z,10.30
2023-12-31T07:37:04.983Z,12.27
2023-12-31T07:39:33.194Z,12.63
2023-12-31T07:41:59.733Z,11.63
2023-12-31T07:44:26.180Z,9.15
2023-12-31T07:46:52.671Z,9.45
2023-12-31T07:49:19.258Z,8.90
2023-12-31T07:51:46.570Z,9.15
2023-12-31T07:54:13.011Z,9.13
2023-12-31T07:56:42.321Z,7.97
2023-12-31T07:59:09.536Z,9.07
2023-12-31T08:01:36.063Z,8.57
2023-12-31T08:04:02.613Z,9.20
2023-12-31T08:06:29.248Z,9.82
2023-12-31T08:08:55.808Z,11.23
2023-12-31T08:11:22.496Z,10.50
2023-12-31T08:13:50.054Z,9.27
2023-12-31T08:16:17.561Z,8.50
2023-12-31T08:18:44.426Z,7.53
2023-12-31T08:21:11.426Z,6.28
2023-12-31T08:23:38.300Z,5.10
2023-12-31T08:26:05.002Z,5.18
2023-12-31T08:28:31.807Z,4.72
2023-12-31T08:30:58.301Z,4.32
2023-12-31T08:33:24.848Z,4.00
2023-12-31T08:35:51.296Z,4.00
2023-12-31T08:38:17.808Z,3.63
2023-12-31T08:40:44.412Z,4.13
2023-12-31T08:43:10.893Z,3.45
2023-12-31T08:45:40.560Z,3.75
2023-12-31T08:48:08.886Z,5.22
2023-12-31T08:50:35.579Z,4.10
2023-12-31T08:53:02.194Z,2.72
2023-12-31T08:55:28.876Z,3.03
2023-12-31T08:57:55.428Z,3.17
2023-12-31T09:00:21.960Z,3.08
2023-12-31T09:02:48.705Z,2.60
2023-12-31T09:05:15.516Z,4.07
2023-12-31T09:07:42.443Z,2.60
2023-12-31T09:10:09.545Z,2.28
2023-12-31T09:12:36.331Z,1.75
2023-12-31T09:15:02.815Z,1.40
2023-12-31T09:17:29.443Z,1.90
2023-12-31T09:19:59.378Z,1.65
2023-12-31T09:22:26.702Z,2.35
2023-12-31T09:24:54.130Z,1.92
2023-12-31T09:27:20.984Z,2.03
2023-12-31T09:29:47.890Z,1.83
2023-12-31T09:32:14.420Z,1.65
2023-12-31T09:34:41.309Z,1.60
2023-12-31T09:37:08.771Z,1.67
2023-12-31T09:39:35.656Z,1.67
2023-12-31T09:42:11.078Z,2.08
2023-12-31T09:44:37.870Z,2.08
2023-12-31T09:47:11.111Z,2.03
2023-12-31T09:49:40.659Z,2.08
2023-12-31T09:52:09.002Z,2.38
2023-12-31T09:54:37.865Z,2.40
2023-12-31T09:57:05.723Z,3.40
2023-12-31T09:59:32.353Z,3.22
2023-12-31T10:02:00.994Z,3.45
2023-12-31T10:04:28.193Z,7.70
2023-12-31T10:06:55.623Z,3.03
2023-12-31T10:09:32.159Z,3.00
2023-12-31T10:11:59.954Z,2.47
2023-12-31T10:14:26.525Z,3.15
2023-12-31T10:16:53.115Z,3.72
2023-12-31T10:19:20.511Z,5.10
2023-12-31T10:21:47.036Z,5.43
2023-12-31T10:24:13.570Z,5.10
2023-12-31T10:26:41.164Z,3.65
2023-12-31T10:29:07.695Z,3.25
2023-12-31T10:31:34.374Z,3.47
2023-12-31T10:34:17.992Z,3.47
2023-12-31T10:36:46.227Z,3.65
2023-12-31T10:39:29.374Z,3.83
2023-12-31T10:42:05.202Z,4.20
2023-12-31T10:44:37.010Z,4.68
2023-12-31T10:47:08.301Z,4.82
2023-12-31T10:49:35.901Z,4.80
2023-12-31T10:52:06.679Z,3.95
2023-12-31T10:54:43.494Z,3.95
2023-12-31T10:57:10.909Z,3.63
2023-12-31T10:59:40.490Z,4.57
2023-12-31T11:02:16.345Z,4.10
2023-12-31T11:04:45.982Z,4.18
2023-12-31T11:07:15.141Z,4.15
2023-12-31T11:09:47.621Z,4.07
2023-12-31T11:12:15.930Z,4.30
2023-12-31T11:14:49.444Z,4.20
2023-12-31T11:17:46.979Z,4.15
2023-12-31T11:20:55.347Z,4.43
2023-12-31T11:23:38.015Z,4.72
2023-12-31T11:26:06.715Z,10.38
2023-12-31T11:28:34.583Z,6.10
2023-12-31T11:31:05.040Z,4.82
2023-12-31T11:33:35.751Z,8.77
2023-12-31T11:36:08.916Z,6.63
2023-12-31T11:39:02.547Z,17.20
2023-12-31T11:41:46.213Z,5.57
2023-12-31T11:44:35.810Z,7.72
2023-12-31T11:47:02.417Z,4.63
2023-12-31T11:49:28.998Z,5.90
2023-12-31T11:51:59.819Z,6.40
2023-12-31T11:54:38.532Z,3.60
2023-12-31T11:57:05.907Z,4.65
2023-12-31T11:59:36.492Z,4.35
2023-12-31T12:02:04.264Z,3.97
2023-12-31T12:04:31.043Z,3.83
2023-12-31T12:06:57.669Z,3.42
2023-12-31T12:09:28.833Z,3.30
2023-12-31T12:12:13.632Z,4.10
2023-12-31T12:14:40.072Z,3.00
2023-12-31T12:17:06.781Z,3.50
2023-12-31T12:19:37.657Z,3.65
2023-12-31T12:22:04.987Z,3.20
2023-12-31T12:24:31.682Z,3.30
2023-12-31T12:27:00.191Z,3.20
2023-12-31T12:29:28.252Z,3.17
2023-12-31T12:31:54.743Z,3.35
2023-12-31T12:34:21.728Z,3.35
2023-12-31T12:36:49.238Z,3.42
2023-12-31T12:39:21.972Z,3.08
2023-12-31T12:41:49.839Z,2.45
2023-12-31T12:44:17.828Z,2.33
2023-12-31T12:46:46.521Z,2.30
2023-12-31T12:49:13.965Z,2.40
2023-12-31T12:51:41.935Z,2.55
2023-12-31T12:54:11.612Z,2.10
2023-12-31T12:56:38.406Z,2.50
2023-12-31T12:59:05.340Z,2.00
2023-12-31T13:01:32.810Z,2.45
2023-12-31T13:03:59.393Z,1.90
2023-12-31T13:06:26.086Z,1.52
2023-12-31T13:08:52.658Z,1.10
2023-12-31T13:11:19.583Z,1.70
2023-12-31T13:13:46.556Z,1.67
2023-12-31T13:16:18.876Z,1.70
2023-12-31T13:18:50.155Z,1.73
2023-12-31T13:21:17.014Z,1.80
2023-12-31T13:23:44.224Z,1.38
2023-12-31T13:26:10.744Z,1.23
2023-12-31T13:28:37.316Z,1.02
2023-12-31T13:31:04.214Z,0.95
2023-12-31T13:33:31.941Z,1.02
2023-12-31T13:35:58.898Z,1.75
2023-12-31T13:38:25.695Z,1.60
2023-12-31T13:40:52.828Z,1.33
2023-12-31T13:43:19.454Z,1.33
2023-12-31T13:45:46.164Z,1.38
2023-12-31T13:48:14.699Z,1.60
2023-12-31T13:50:41.916Z,1.65
2023-12-31T13:53:10.715Z,1.90
2023-12-31T13:55:37.410Z,3.15
2023-12-31T13:58:04.045Z,1.70
2023-12-31T14:00:30.517Z,1.30
2023-12-31T14:03:03.763Z,1.67
2023-12-31T14:05:34.031Z,1.70
2023-12-31T14:08:01.370Z,1.42
2023-12-31T14:10:28.004Z,1.83
2023-12-31T14:12:54.606Z,1.85
2023-12-31T14:15:21.545Z,2.00
2023-12-31T14:17:48.533Z,2.00
2023-12-31T14:20:15.267Z,2.03
2023-12-31T14:22:42.820Z,1.42
2023-12-31T14:25:10.178Z,1.45
2023-12-31T14:27:37.021Z,1.40
2023-12-31T14:30:04.727Z,1.33
2023-12-31T14:32:31.387Z,0.98
2023-12-31T14:34:58.080Z,0.93
2023-12-31T14:37:24.584Z,1.10
2023-12-31T14:39:51.088Z,0.60
2023-12-31T14:42:19.058Z,1.30
2023-12-31T14:44:45.743Z,2.55
2023-12-31T14:47:12.288Z,0.75
2023-12-31T14:49:38.871Z,0.80
2023-12-31T14:52:05.862Z,0.70
2023-12-31T14:54:32.786Z,0.50
2023-12-31T14:56:59.248Z,1.40
2023-12-31T14:59:25.674Z,0.65
2023-12-31T15:01:52.573Z,0.93
2023-12-31T15:04:19.395Z,1.45
2023-12-31T15:06:45.856Z,1.05
2023-12-31T15:09:12.519Z,1.00
2023-12-31T15:11:43.236Z,0.70
2023-12-31T15:14:10.867Z,0.70
2023-12-31T15:16:37.513Z,0.60
2023-12-31T15:19:04.324Z,0.60
2023-12-31T15:21:31.038Z,2.75
2023-12-31T15:23:57.875Z,3.13
2023-12-31T15:26:24.958Z,0.98
2023-12-31T15:28:52.054Z,0.88
2023-12-31T15:31:18.602Z,1.10
2023-12-31T15:33:45.228Z,1.50
2023-12-31T15:36:11.761Z,1.48
2023-12-31T15:38:39.513Z,0.93
2023-12-31T15:41:06.241Z,0.70
2023-12-31T15:43:32.800Z,1.15
2023-12-31T15:45:59.339Z,0.90
2023-12-31T15:48:25.903Z,3.50
2023-12-31T15:50:55.071Z,0.50
2023-12-31T15:53:21.770Z,0.65
2023-12-31T15:55:48.273Z,1.20
2023-12-31T15:58:14.776Z,1.70
2023-12-31T16:00:41.275Z,2.10
2023-12-31T16:03:07.979Z,2.20
2023-12-31T16:05:34.476Z,2.00
2023-12-31T16:08:01.647Z,5.30
2023-12-31T16:10:28.840Z,1.90
2023-12-31T16:12:55.307Z,24.10
2023-12-31T16:15:21.768Z,3.40
2023-12-31T16:17:48.468Z,3.03
2023-12-31T16:20:17.394Z,0.82
2023-12-31T16:22:44.403Z,0.60
2023-12-31T16:25:12.579Z,0.38
2023-12-31T16:27:39.124Z,0.30
2023-12-31T16:30:07.214Z,0.40
2023-12-31T16:32:34.401Z,0.30
2023-12-31T16:35:00.983Z,0.20
2023-12-31T16:37:28.180Z,0.40
2023-12-31T16:39:54.707Z,0.43
2023-12-31T16:42:21.247Z,0.43
2023-12-31T16:44:47.801Z,0.43
2023-12-31T16:47:14.757Z,0.47
2023-12-31T16:49:41.470Z,0.40
2023-12-31T16:52:08.068Z,0.70
2023-12-31T16:54:34.579Z,0.80
2023-12-31T16:57:01.085Z,0.70
2023-12-31T16:59:27.573Z,1.10
2023-12-31T17:01:54.076Z,1.10
2023-12-31T17:04:20.551Z,0.38
2023-12-31T17:06:47.040Z,1.17
2023-12-31T17:09:15.842Z,5.03
2023-12-31T17:11:45.651Z,0.73
2023-12-31T17:14:13.883Z,0.80
2023-12-31T17:16:41.390Z,0.57
2023-12-31T17:19:09.473Z,0.80
2023-12-31T17:21:36.344Z,0.90
2023-12-31T17:24:04.160Z,0.80
2023-12-31T17:26:30.769Z,1.02
2023-12-31T17:28:57.382Z,1.08
2023-12-31T17:31:23.967Z,1.52
2023-12-31T17:33:50.556Z,0.80
2023-12-31T17:36:17.192Z,1.00
2023-12-31T17:38:44.261Z,0.52
2023-12-31T17:41:12.162Z,0.70
2023-12-31T17:43:38.794Z,0.88
2023-12-31T17:46:05.345Z,1.27
2023-12-31T17:48:31.938Z,1.50
2023-12-31T17:50:58.543Z,0.90
2023-12-31T17:53:25.063Z,0.80
2023-12-31T17:55:52.089Z,0.73
2023-12-31T17:58:19.716Z,1.27
2023-12-31T18:00:46.182Z,0.70
2023-12-31T18:03:12.735Z,1.30
2023-12-31T18:05:39.244Z,1.27
2023-12-31T18:08:06.470Z,1.20
2023-12-31T18:10:33.154Z,2.10
2023-12-31T18:12:59.739Z,29.13
2023-12-31T18:15:26.233Z,3.28
2023-12-31T18:17:53.928Z,20.35
2023-12-31T18:20:20.450Z,2.40
2023-12-31T18:22:47.885Z,1.50
2023-12-31T18:25:14.430Z,0.80
2023-12-31T18:27:40.924Z,0.90
2023-12-31T18:30:15.914Z,1.60
2023-12-31T18:32:47.175Z,1.10
2023-12-31T18:35:13.849Z,0.90
2023-12-31T18:37:40.417Z,1.20
2023-12-31T18:40:07.566Z,0.80
2023-12-31T18:42:34.229Z,0.80
2023-12-31T18:45:00.909Z,1.17
2023-12-31T18:47:27.515Z,0.70
2023-12-31T18:49:53.965Z,0.90
2023-12-31T18:52:20.432Z,0.90
2023-12-31T18:54:47.210Z,0.90
2023-12-31T18:57:15.065Z,0.90
2023-12-31T18:59:43.542Z,0.88
2023-12-31T19:02:12.896Z,0.70
2023-12-31T19:04:41.162Z,1.50
2023-12-31T19:07:07.605Z,1.10
2023-12-31T19:09:34.142Z,0.70
2023-12-31T19:12:00.626Z,1.58
2023-12-31T19:14:27.121Z,1.00
2023-12-31T19:16:53.679Z,1.20
2023-12-31T19:19:20.160Z,1.05
2023-12-31T19:21:46.964Z,0.90
2023-12-31T19:24:13.404Z,1.10
2023-12-31T19:26:39.892Z,1.08
2023-12-31T19:29:06.426Z,0.95
2023-12-31T19:31:32.959Z,1.98
2023-12-31T19:33:59.490Z,0.90
2023-12-31T19:36:26.103Z,1.05
2023-12-31T19:38:52.534Z,1.10
2023-12-31T19:41:18.957Z,2.05
2023-12-31T19:44:05.523Z,1.20
2023-12-31T19:46:32.097Z,1.10
2023-12-31T19:48:59.430Z,1.10
2023-12-31T19:51:25.941Z,1.42
2023-12-31T19:53:52.437Z,1.40
2023-12-31T19:56:19.260Z,1.20
2023-12-31T19:58:45.910Z,1.33
2023-12-31T20:01:12.461Z,1.30
2023-12-31T20:03:45.279Z,1.20
2023-12-31T20:06:13.130Z,2.33
2023-12-31T20:08:39.729Z,2.13
2023-12-31T20:11:06.847Z,1.60
2023-12-31T20:13:33.660Z,1.40
2023-12-31T20:16:00.172Z,1.50
2023-12-31T20:18:26.723Z,2.33
2023-12-31T20:20:53.232Z,1.60
2023-12-31T20:23:21.761Z,1.50
2023-12-31T20:25:49.891Z,1.67
2023-12-31T20:28:16.423Z,1.38
2023-12-31T20:30:42.975Z,1.45
2023-12-31T20:33:10.070Z,1.33
2023-12-31T20:35:36.937Z,1.30
2023-12-31T20:38:03.465Z,1.50
2023-12-31T20:40:30.093Z,2.05
2023-12-31T20:42:56.630Z,1.58
2023-12-31T20:45:25.207Z,1.40
2023-12-31T20:47:52.348Z,1.70
2023-12-31T20:50:19.107Z,1.30
2023-12-31T20:52:45.654Z,1.60
2023-12-31T20:55:12.173Z,1.70
2023-12-31T20:57:38.718Z,1.58
2023-12-31T21:00:07.112Z,2.45
2023-12-31T21:02:33.943Z,1.40
2023-12-31T21:05:00.638Z,1.85
2023-12-31T21:07:27.312Z,1.40
2023-12-31T21:09:53.861Z,1.70
2023-12-31T21:12:20.383Z,2.60
2023-12-31T21:14:46.826Z,1.95
2023-12-31T21:17:13.473Z,1.50
2023-12-31T21:19:40.022Z,1.20
2023-12-31T21:22:07.123Z,1.70
2023-12-31T21:24:33.600Z,1.42
2023-12-31T21:27:00.036Z,1.55
2023-12-31T21:29:26.686Z,1.65
2023-12-31T21:31:53.235Z,2.03
2023-12-31T21:34:19.741Z,2.28
2023-12-31T21:36:46.213Z,2.75
2023-12-31T21:39:14.500Z,1.50
2023-12-31T21:41:43.081Z,1.40
2023-12-31T21:44:13.046Z,1.40
2023-12-31T21:46:39.909Z,1.65
2023-12-31T21:49:06.502Z,1.67
2023-12-31T21:51:35.338Z,2.13
2023-12-31T21:54:02.504Z,2.08
2023-12-31T21:56:47.104Z,1.50
2023-12-31T21:59:15.449Z,2.05
2023-12-31T22:01:41.945Z,1.33
2023-12-31T22:04:09.665Z,1.40
2023-12-31T22:06:36.188Z,1.60
2023-12-31T22:09:02.790Z,1.63
2023-12-31T22:11:29.629Z,1.50
2023-12-31T22:13:56.150Z,1.75
2023-12-31T22:16:22.725Z,1.63
2023-12-31T22:18:49.318Z,1.95
2023-12-31T22:21:15.969Z,1.85
2023-12-31T22:23:42.506Z,1.90
2023-12-31T22:26:09.022Z,1.67
2023-12-31T22:28:35.483Z,1.90
2023-12-31T22:31:01.943Z,2.40
2023-12-31T22:33:28.603Z,2.25
2023-12-31T22:35:55.117Z,2.10
2023-12-31T22:38:21.586Z,1.67
2023-12-31T22:40:48.091Z,1.80
2023-12-31T22:43:14.753Z,2.17
2023-12-31T22:45:41.207Z,1.67
2023-12-31T22:48:08.220Z,2.25
2023-12-31T22:50:34.988Z,1.85
2023-12-31T22:53:01.755Z,2.30
2023-12-31T22:55:28.281Z,2.03
2023-12-31T22:57:55.775Z,1.90
2023-12-31T23:00:22.419Z,2.03
2023-12-31T23:02:50.084Z,2.28
2023-12-31T23:05:16.838Z,2.58
2023-12-31T23:07:43.434Z,18.45
2023-12-31T23:10:10.105Z,10.05
2023-12-31T23:12:36.588Z,32.20
2023-12-31T23:15:03.383Z,15.40
2023-12-31T23:17:30.014Z,45.55
2023-12-31T23:19:56.602Z,19.55
2023-12-31T23:22:23.185Z,20.65
2023-12-31T23:24:49.711Z,5.03
2023-12-31T23:27:16.191Z,32.03
2023-12-31T23:29:44.488Z,11.93
2023-12-31T23:32:14.211Z,4.35
2023-12-31T23:34:40.762Z,7.47
2023-12-31T23:37:09.514Z,8.05
2023-12-31T23:39:37.698Z,7.70
2023-12-31T23:42:04.806Z,7.25
2023-12-31T23:44:31.802Z,7.90
2023-12-31T23:46:59.521Z,9.05
2023-12-31T23:49:27.782Z,10.73
2023-12-31T23:51:55.503Z,9.98
2023-12-31T23:54:23.845Z,12.82
2023-12-31T23:56:50.362Z,13.27
2023-12-31T23:59:16.920Z,11.95
